メインページ
METAR-TAF:

METAR-TAF

空港 :

重慶, 中華人民共和国

重慶江北国際空港

緯度: 29-31N, 経度: 106-29E, 海抜: 351m

現時点の気象観測

当レポートは49分前の05:00(UTC)に作成
南/南東の風 8kt、から南/南西の間で変化する
気温 36°C
湿度 45%
気圧 1003 hPa
視程10km以上
1,500メートル以下は雲なし、積乱雲なし

METAR: ZUCK 200500Z 15004MPS 100V200 CAVOK 36/22 Q1003 NOSIG

時間: 13:49 (05:49 UTC)

予報

当レポートは2時間39分前の03:10(UTC)に作成
予報は20日の 06時(UTC)から 21日の 06時(UTC)まで有効
南東の風 6kt
視程: 6000m
高度4000ftの雲は散在している

TAF: ZUCK 200310Z 2006/2106 14003MPS 6000 SCT040 TX37/2007Z TN28/2021Z

4,000以上の空港の気象観測と天気予報(METAR報とTAF報)

利用可能な観測所は地図上に黄色い丸と赤い丸で示す。

丸の上にカーソルを重ねると観測所名を参照できる。

次にクリックすると気象観測と天気予報を参照できる。

マップの切り替え:黒色「×」印の緑ボタンをクリックして拡大、「-」印の緑ボタンをクリックして縮小、緑色の三角印をクリックして隣りの地図に切り替え


METAR-TAF: